createdAt,value
2023-07-24T00:00:00.554Z,97411.41
2023-07-24T00:05:04.076Z,97414.56
2023-07-24T00:10:08.204Z,97371.16
2023-07-24T00:15:13.170Z,97356.19
2023-07-24T00:20:20.857Z,97388.25
2023-07-24T00:25:24.324Z,97292.06
2023-07-24T00:30:29.154Z,97308.06
2023-07-24T00:35:32.574Z,97300.00
2023-07-24T00:40:36.040Z,97176.97
2023-07-24T00:45:40.940Z,97290.84
2023-07-24T00:50:45.327Z,97027.09
2023-07-24T00:55:49.383Z,97330.84
2023-07-24T01:00:54.313Z,97318.56
2023-07-24T01:05:58.299Z,97310.19
2023-07-24T01:11:07.607Z,97277.84
2023-07-24T01:16:16.369Z,97286.56
2023-07-24T01:21:29.076Z,97247.53
2023-07-24T01:26:34.574Z,97308.41
2023-07-24T01:31:38.114Z,97277.94
2023-07-24T01:36:41.705Z,97289.72
2023-07-24T01:41:46.751Z,97285.09
2023-07-24T01:46:50.222Z,97282.69
2023-07-24T01:51:53.628Z,97226.00
2023-07-24T01:56:58.412Z,97281.66
2023-07-24T02:02:01.796Z,97285.78
2023-07-24T02:07:05.861Z,97210.78
2023-07-24T02:12:10.689Z,97281.97
2023-07-24T02:17:14.152Z,97204.56
2023-07-24T02:22:17.721Z,97283.09
2023-07-24T02:27:29.957Z,97278.69
2023-07-24T02:32:34.967Z,97244.50
2023-07-24T02:37:38.538Z,97202.69
2023-07-24T02:42:43.276Z,97265.09
2023-07-24T02:47:46.853Z,97261.03
2023-07-24T02:52:51.183Z,97237.13
2023-07-24T02:57:56.104Z,97119.28
2023-07-24T03:02:59.585Z,97210.25
2023-07-24T03:08:03.273Z,97201.28
2023-07-24T03:13:09.069Z,96924.16
2023-07-24T03:18:12.491Z,97126.59
2023-07-24T03:23:16.582Z,97192.34
2023-07-24T03:28:21.438Z,97229.25
2023-07-24T03:33:24.889Z,97241.25
2023-07-24T03:38:28.503Z,97208.66
2023-07-24T03:43:33.219Z,97222.75
2023-07-24T03:48:37.667Z,97223.88
2023-07-24T03:53:41.041Z,97215.72
2023-07-24T03:58:45.873Z,97153.81
2023-07-24T04:03:49.353Z,97226.63
2023-07-24T04:08:54.017Z,97229.63
2023-07-24T04:13:58.806Z,97229.34
2023-07-24T04:19:02.229Z,97180.97
2023-07-24T04:24:06.057Z,97195.63
2023-07-24T04:29:10.834Z,97160.88
2023-07-24T04:34:14.247Z,97184.19
2023-07-24T04:39:17.685Z,97194.28
2023-07-24T04:44:22.486Z,97132.91
2023-07-24T04:49:25.930Z,97101.09
2023-07-24T04:54:30.457Z,97167.81
2023-07-24T04:59:35.234Z,97171.06
2023-07-24T05:04:38.711Z,97130.59
2023-07-24T05:09:42.146Z,97156.91
2023-07-24T05:14:46.943Z,97165.53
2023-07-24T05:19:50.331Z,97146.56
2023-07-24T05:24:53.822Z,97160.34
2023-07-24T05:29:58.624Z,97134.38
2023-07-24T05:35:02.284Z,97181.38
2023-07-24T05:40:07.064Z,97020.09
2023-07-24T05:45:13.152Z,97190.75
2023-07-24T05:50:16.618Z,97207.09
2023-07-24T05:55:20.112Z,96978.97
2023-07-24T06:00:25.031Z,97178.63
2023-07-24T06:05:28.504Z,97180.78
2023-07-24T06:10:31.934Z,97225.00
2023-07-24T06:15:36.748Z,97139.66
2023-07-24T06:20:40.157Z,97178.75
2023-07-24T06:25:44.489Z,96935.91
2023-07-24T06:30:49.221Z,97191.06
2023-07-24T06:35:53.074Z,97127.78
2023-07-24T06:40:56.648Z,97163.41
2023-07-24T06:46:01.652Z,97172.59
2023-07-24T06:51:05.312Z,97170.94
2023-07-24T06:56:08.779Z,97158.09
2023-07-24T07:01:13.663Z,97099.66
2023-07-24T07:11:23.664Z,97139.91
2023-07-24T07:16:28.660Z,97150.41
2023-07-24T07:21:32.344Z,97116.66
2023-07-24T07:26:35.834Z,97121.50
2023-07-24T07:31:40.741Z,97183.25
2023-07-24T07:36:44.307Z,97196.09
2023-07-24T07:41:47.870Z,97161.50
2023-07-24T07:46:52.760Z,97165.91
2023-07-24T07:51:56.288Z,97088.63
2023-07-24T07:56:59.748Z,97232.13
2023-07-24T08:02:04.930Z,97134.22
2023-07-24T08:07:08.540Z,97204.56
2023-07-24T08:12:12.075Z,97147.16
2023-07-24T08:17:17.183Z,97290.59
2023-07-24T08:22:23.910Z,97267.41
2023-07-24T08:27:27.374Z,97201.69
2023-07-24T08:32:32.235Z,97274.75
2023-07-24T08:37:35.656Z,97215.00
2023-07-24T08:42:40.954Z,97178.38
2023-07-24T08:47:46.662Z,97152.91
2023-07-24T08:52:50.172Z,97113.91
2023-07-24T08:57:53.957Z,97079.88
2023-07-24T09:02:59.155Z,97116.56
2023-07-24T09:08:02.860Z,97146.03
2023-07-24T09:13:06.257Z,97192.03
2023-07-24T09:18:11.572Z,97192.94
2023-07-24T09:23:19.807Z,97129.09
2023-07-24T09:28:27.973Z,97155.03
2023-07-24T09:33:41.062Z,97206.91
2023-07-24T09:38:47.057Z,97185.41
2023-07-24T09:43:50.408Z,97170.41
2023-07-24T09:54:08.941Z,97199.31
2023-07-24T09:59:13.713Z,97201.75
2023-07-24T10:04:18.896Z,97219.72
2023-07-24T10:09:26.273Z,97217.50
2023-07-24T10:14:32.862Z,97190.78
2023-07-24T10:19:43.027Z,97190.56
2023-07-24T10:24:46.382Z,97240.59
2023-07-24T10:30:00.569Z,97241.34
2023-07-24T10:35:10.826Z,97227.22
2023-07-24T10:40:22.766Z,97232.50
2023-07-24T10:45:26.194Z,97240.66
2023-07-24T10:50:40.748Z,97193.06
2023-07-24T10:55:44.555Z,97181.22
2023-07-24T11:00:48.685Z,97213.72
2023-07-24T11:05:54.187Z,97200.28
2023-07-24T11:10:59.228Z,97061.75
2023-07-24T11:16:07.013Z,97186.88
2023-07-24T11:21:14.557Z,97170.03
2023-07-24T11:26:20.877Z,97132.94
2023-07-24T11:31:24.454Z,97121.13
2023-07-24T11:36:29.630Z,96820.84
2023-07-24T11:41:33.665Z,96979.03
2023-07-24T11:46:37.520Z,97104.00
2023-07-24T11:51:42.504Z,97140.75
2023-07-24T11:56:46.045Z,97151.16
2023-07-24T12:01:50.208Z,97117.66
2023-07-24T12:06:55.073Z,96927.63
2023-07-24T12:12:01.083Z,97172.94
2023-07-24T12:17:11.251Z,97096.47
2023-07-24T12:22:17.849Z,97178.75
2023-07-24T12:27:22.176Z,96982.25
2023-07-24T12:32:30.541Z,97183.59
2023-07-24T12:37:36.007Z,97135.44
2023-07-24T12:42:42.431Z,97166.34
2023-07-24T12:47:47.584Z,97154.28
2023-07-24T12:52:54.077Z,97106.53
2023-07-24T12:57:58.302Z,97095.06
2023-07-24T13:03:01.920Z,97102.59
2023-07-24T13:08:06.930Z,97114.78
2023-07-24T13:13:11.124Z,97116.41
2023-07-24T13:18:27.780Z,97109.53
2023-07-24T13:23:34.010Z,97091.13
2023-07-24T13:28:37.484Z,97093.53
2023-07-24T13:33:40.996Z,97059.34
2023-07-24T13:38:45.917Z,96783.25
2023-07-24T13:43:49.541Z,97066.44
2023-07-24T13:48:53.015Z,97049.91
2023-07-24T13:53:57.836Z,97034.31
2023-07-24T13:59:01.510Z,97016.31
2023-07-24T14:04:05.200Z,97010.06
2023-07-24T14:09:10.439Z,97005.09
2023-07-24T14:14:14.063Z,96929.50
2023-07-24T14:19:18.649Z,96996.81
2023-07-24T14:24:23.531Z,96963.94
2023-07-24T14:29:26.992Z,97000.38
2023-07-24T14:34:30.558Z,96974.56
2023-07-24T14:39:35.445Z,96993.88
2023-07-24T14:44:38.943Z,96702.47
2023-07-24T14:49:42.364Z,96972.91
2023-07-24T14:54:47.156Z,96954.47
2023-07-24T14:59:50.659Z,96947.84
2023-07-24T15:04:54.314Z,96899.66
2023-07-24T15:09:59.336Z,96871.88
2023-07-24T15:15:02.804Z,96892.28
2023-07-24T15:20:09.229Z,96967.78
2023-07-24T15:25:14.054Z,96985.25
2023-07-24T15:30:17.569Z,96978.47
2023-07-24T15:35:21.090Z,96995.22
2023-07-24T15:40:25.934Z,96982.75
2023-07-24T15:45:29.452Z,96964.91
2023-07-24T15:50:32.904Z,97006.81
2023-07-24T15:55:37.711Z,96757.47
2023-07-24T16:00:41.340Z,96930.78
2023-07-24T16:05:44.869Z,97017.53
2023-07-24T16:10:49.618Z,96935.41
2023-07-24T16:15:53.006Z,97002.78
2023-07-24T16:20:56.484Z,97044.81
2023-07-24T16:26:01.363Z,96988.31
2023-07-24T16:31:04.775Z,97011.97
2023-07-24T16:36:08.242Z,97043.50
2023-07-24T16:41:13.275Z,97030.31
2023-07-24T16:51:23.189Z,97053.03
2023-07-24T16:56:27.992Z,96933.00
2023-07-24T17:01:34.241Z,97000.28
2023-07-24T17:06:38.144Z,97071.44
2023-07-24T17:11:45.205Z,97045.66
2023-07-24T17:16:48.881Z,97020.47
2023-07-24T17:21:52.394Z,97072.28
2023-07-24T17:26:57.285Z,97077.38
2023-07-24T17:32:01.506Z,97044.72
2023-07-24T17:37:05.336Z,97084.94
2023-07-24T17:42:10.528Z,97065.38
2023-07-24T17:47:13.960Z,97095.59
2023-07-24T17:52:17.585Z,97031.97
2023-07-24T17:57:22.612Z,97038.31
2023-07-24T18:02:26.254Z,97008.69
2023-07-24T18:07:29.737Z,97096.69
2023-07-24T18:12:34.613Z,97098.91
2023-07-24T18:17:38.068Z,97124.22
2023-07-24T18:22:43.970Z,97096.94
2023-07-24T18:27:48.821Z,97108.31
2023-07-24T18:32:52.351Z,97107.84
2023-07-24T18:37:56.839Z,97120.59
2023-07-24T18:43:01.627Z,97117.25
2023-07-24T18:48:05.583Z,97123.28
2023-07-24T18:53:09.144Z,97056.06
2023-07-24T18:58:14.422Z,97021.94
2023-07-24T19:03:18.049Z,97037.03
2023-07-24T19:08:21.493Z,97081.97
2023-07-24T19:13:27.758Z,97131.28
2023-07-24T19:18:31.247Z,97061.06
2023-07-24T19:23:34.812Z,97127.81
2023-07-24T19:28:39.595Z,97015.25
2023-07-24T19:33:43.054Z,97145.13
2023-07-24T19:38:46.714Z,97027.25
2023-07-24T19:43:51.713Z,96899.47
2023-07-24T19:48:55.936Z,96861.06
2023-07-24T19:53:59.363Z,97133.31
2023-07-24T19:59:04.269Z,97101.69
2023-07-24T20:04:07.812Z,97140.22
2023-07-24T20:09:11.273Z,97149.28
2023-07-24T20:14:16.041Z,97053.66
2023-07-24T20:19:19.438Z,97120.91
2023-07-24T20:24:22.818Z,97123.66
2023-07-24T20:29:27.670Z,97154.16
2023-07-24T20:34:31.077Z,97143.34
2023-07-24T20:39:34.515Z,97141.34
2023-07-24T20:44:39.367Z,97159.84
2023-07-24T20:49:42.833Z,97167.22
2023-07-24T20:54:48.763Z,97169.72
2023-07-24T20:59:53.566Z,97154.16
2023-07-24T21:04:57.086Z,97150.13
2023-07-24T21:10:00.523Z,97114.09
2023-07-24T21:15:06.171Z,97129.06
2023-07-24T21:20:10.317Z,96827.34
2023-07-24T21:25:13.804Z,97043.72
2023-07-24T21:30:19.936Z,97058.66
2023-07-24T21:35:23.430Z,97093.47
2023-07-24T21:40:26.884Z,97165.09
2023-07-24T21:45:31.617Z,97180.28
2023-07-24T21:50:35.210Z,97114.13
2023-07-24T21:55:40.359Z,97132.56
2023-07-24T22:00:45.241Z,97143.97
2023-07-24T22:05:48.854Z,97180.38
2023-07-24T22:10:52.388Z,97179.28
2023-07-24T22:15:57.213Z,97153.25
2023-07-24T22:21:00.741Z,97159.22
2023-07-24T22:26:04.383Z,97180.16
2023-07-24T22:31:12.930Z,97131.81
2023-07-24T22:36:16.500Z,97149.81
2023-07-24T22:41:20.041Z,97141.06
2023-07-24T22:46:24.996Z,97162.22
2023-07-24T22:51:28.775Z,97173.44
2023-07-24T22:56:32.364Z,97144.63
2023-07-24T23:01:37.130Z,97152.81
2023-07-24T23:06:40.502Z,97156.59
2023-07-24T23:11:44.300Z,97144.94
2023-07-24T23:16:49.074Z,97079.50
2023-07-24T23:21:52.562Z,97154.44
2023-07-24T23:26:56.497Z,97073.53
2023-07-24T23:32:01.354Z,96789.66
2023-07-24T23:37:09.473Z,97066.72
2023-07-24T23:42:12.937Z,96788.28
2023-07-24T23:47:17.876Z,97110.47
2023-07-24T23:52:21.493Z,97107.75
2023-07-24T23:57:28.804Z,97118.09
